sensor_id;sensor_type;location;lat;lon;timestamp;temperature;humidity
10441;DHT22;5268;49.346;9.522;2023-08-30T03:09:13;14.50;99.90
10441;DHT22;5268;49.346;9.522;2023-08-30T03:14:15;14.40;99.90
10441;DHT22;5268;49.346;9.522;2023-08-30T03:19:17;14.40;99.90
10441;DHT22;5268;49.346;9.522;2023-08-30T03:24:20;14.40;99.90
10441;DHT22;5268;49.346;9.522;2023-08-30T03:29:22;14.40;99.90
10441;DHT22;5268;49.346;9.522;2023-08-30T03:34:24;14.30;99.90
10441;DHT22;5268;49.346;9.522;2023-08-30T03:39:27;14.30;99.90
10441;DHT22;5268;49.346;9.522;2023-08-30T03:44:29;14.30;99.90
10441;DHT22;5268;49.346;9.522;2023-08-30T03:49:31;14.30;99.90
10441;DHT22;5268;49.346;9.522;2023-08-30T03:54:35;14.30;99.90
10441;DHT22;5268;49.346;9.522;2023-08-30T03:59:37;14.30;99.90
10441;DHT22;5268;49.346;9.522;2023-08-30T04:04:39;14.30;99.90
10441;DHT22;5268;49.346;9.522;2023-08-30T04:09:42;14.30;99.90
10441;DHT22;5268;49.346;9.522;2023-08-30T04:14:44;14.30;99.90
10441;DHT22;5268;49.346;9.522;2023-08-30T04:19:46;14.30;99.90
10441;DHT22;5268;49.346;9.522;2023-08-30T04:24:49;14.30;99.90
10441;DHT22;5268;49.346;9.522;2023-08-30T04:29:52;14.40;99.90
10441;DHT22;5268;49.346;9.522;2023-08-30T04:34:54;14.40;99.90
10441;DHT22;5268;49.346;9.522;2023-08-30T04:39:58;14.30;99.90
10441;DHT22;5268;49.346;9.522;2023-08-30T04:45:00;14.40;99.90
10441;DHT22;5268;49.346;9.522;2023-08-30T04:50:02;14.40;99.90
10441;DHT22;5268;49.346;9.522;2023-08-30T04:55:09;14.40;99.90
10441;DHT22;5268;49.346;9.522;2023-08-30T05:00:12;14.30;99.90
10441;DHT22;5268;49.346;9.522;2023-08-30T05:05:14;14.40;99.90
10441;DHT22;5268;49.346;9.522;2023-08-30T05:10:18;14.30;99.90
10441;DHT22;5268;49.346;9.522;2023-08-30T05:15:20;14.40;99.90
10441;DHT22;5268;49.346;9.522;2023-08-30T05:20:22;14.30;99.90
10441;DHT22;5268;49.346;9.522;2023-08-30T05:25:26;14.40;99.90
10441;DHT22;5268;49.346;9.522;2023-08-30T05:30:28;14.40;99.90
10441;DHT22;5268;49.346;9.522;2023-08-30T05:35:30;14.40;99.90
10441;DHT22;5268;49.346;9.522;2023-08-30T05:40:33;14.40;99.90
10441;DHT22;5268;49.346;9.522;2023-08-30T05:45:37;14.40;99.90
10441;DHT22;5268;49.346;9.522;2023-08-30T05:50:39;14.40;99.90
10441;DHT22;5268;49.346;9.522;2023-08-30T05:55:42;14.50;99.90
10441;DHT22;5268;49.346;9.522;2023-08-30T06:00:44;14.50;99.90
10441;DHT22;5268;49.346;9.522;2023-08-30T06:05:46;14.60;99.90
10441;DHT22;5268;49.346;9.522;2023-08-30T06:10:50;14.60;99.90
10441;DHT22;5268;49.346;9.522;2023-08-30T06:15:53;14.60;99.90
10441;DHT22;5268;49.346;9.522;2023-08-30T06:20:55;14.60;99.90
10441;DHT22;5268;49.346;9.522;2023-08-30T06:26:00;14.70;99.90
10441;DHT22;5268;49.346;9.522;2023-08-30T06:31:03;14.70;99.90
10441;DHT22;5268;49.346;9.522;2023-08-30T06:36:05;14.80;99.90
10441;DHT22;5268;49.346;9.522;2023-08-30T06:41:09;14.90;99.90
10441;DHT22;5268;49.346;9.522;2023-08-30T06:46:10;15.00;99.90
10441;DHT22;5268;49.346;9.522;2023-08-30T06:51:12;15.10;99.90
10441;DHT22;5268;49.346;9.522;2023-08-30T06:56:16;15.30;99.90
10441;DHT22;5268;49.346;9.522;2023-08-30T07:01:18;15.40;99.90
10441;DHT22;5268;49.346;9.522;2023-08-30T07:06:20;15.50;99.90
10441;DHT22;5268;49.346;9.522;2023-08-30T07:11:23;15.70;99.90
10441;DHT22;5268;49.346;9.522;2023-08-30T07:16:25;15.90;99.90
10441;DHT22;5268;49.346;9.522;2023-08-30T07:21:28;16.00;99.90
10441;DHT22;5268;49.346;9.522;2023-08-30T07:26:32;16.20;99.90
10441;DHT22;5268;49.346;9.522;2023-08-30T07:31:34;16.30;99.90
10441;DHT22;5268;49.346;9.522;2023-08-30T07:36:36;16.40;99.90
10441;DHT22;5268;49.346;9.522;2023-08-30T07:41:39;16.50;99.90
10441;DHT22;5268;49.346;9.522;2023-08-30T07:46:41;16.60;99.90
10441;DHT22;5268;49.346;9.522;2023-08-30T07:51:43;16.60;99.90
10441;DHT22;5268;49.346;9.522;2023-08-30T07:56:47;16.70;99.90
10441;DHT22;5268;49.346;9.522;2023-08-30T08:01:49;16.80;99.90
10441;DHT22;5268;49.346;9.522;2023-08-30T08:06:52;16.80;99.90
10441;DHT22;5268;49.346;9.522;2023-08-30T08:11:55;17.00;99.90
10441;DHT22;5268;49.346;9.522;2023-08-30T08:16:57;17.00;99.90
10441;DHT22;5268;49.346;9.522;2023-08-30T08:21:59;17.00;99.90
10441;DHT22;5268;49.346;9.522;2023-08-30T08:27:03;17.00;99.90
10441;DHT22;5268;49.346;9.522;2023-08-30T08:32:06;17.10;99.90
10441;DHT22;5268;49.346;9.522;2023-08-30T08:37:09;17.30;99.90
10441;DHT22;5268;49.346;9.522;2023-08-30T08:42:13;17.60;99.90
10441;DHT22;5268;49.346;9.522;2023-08-30T08:47:16;18.00;99.90
10441;DHT22;5268;49.346;9.522;2023-08-30T08:52:19;18.10;99.90
10441;DHT22;5268;49.346;9.522;2023-08-30T08:57:22;18.10;99.90
10441;DHT22;5268;49.346;9.522;2023-08-30T09:02:25;18.10;99.90
10441;DHT22;5268;49.346;9.522;2023-08-30T09:07:27;18.00;99.90
10441;DHT22;5268;49.346;9.522;2023-08-30T09:12:34;18.10;99.90
10441;DHT22;5268;49.346;9.522;2023-08-30T09:17:37;18.20;99.90
10441;DHT22;5268;49.346;9.522;2023-08-30T09:22:40;18.40;99.90
10441;DHT22;5268;49.346;9.522;2023-08-30T09:27:44;18.50;99.90
10441;DHT22;5268;49.346;9.522;2023-08-30T09:32:46;18.60;99.90
10441;DHT22;5268;49.346;9.522;2023-08-30T09:37:48;18.60;99.90
10441;DHT22;5268;49.346;9.522;2023-08-30T09:42:51;18.80;99.90
10441;DHT22;5268;49.346;9.522;2023-08-30T09:47:53;19.10;99.90
10441;DHT22;5268;49.346;9.522;2023-08-30T09:52:55;19.40;99.90
10441;DHT22;5268;49.346;9.522;2023-08-30T09:57:59;19.80;99.90
10441;DHT22;5268;49.346;9.522;2023-08-30T10:03:02;20.10;99.90
10441;DHT22;5268;49.346;9.522;2023-08-30T10:08:07;20.40;99.90
10441;DHT22;5268;49.346;9.522;2023-08-30T10:13:11;20.40;99.90
10441;DHT22;5268;49.346;9.522;2023-08-30T10:18:15;20.40;99.90
10441;DHT22;5268;49.346;9.522;2023-08-30T10:23:22;20.60;99.90
10441;DHT22;5268;49.346;9.522;2023-08-30T10:28:26;20.80;99.90
10441;DHT22;5268;49.346;9.522;2023-08-30T10:33:29;21.00;99.90
10441;DHT22;5268;49.346;9.522;2023-08-30T10:38:32;21.10;99.90
10441;DHT22;5268;49.346;9.522;2023-08-30T10:43:40;21.10;99.90
10441;DHT22;5268;49.346;9.522;2023-08-30T10:48:42;20.90;99.90
10441;DHT22;5268;49.346;9.522;2023-08-30T10:53:55;21.10;99.90
10441;DHT22;5268;49.346;9.522;2023-08-30T10:58:58;21.20;99.90
10441;DHT22;5268;49.346;9.522;2023-08-30T11:04:00;21.50;99.90
10441;DHT22;5268;49.346;9.522;2023-08-30T11:09:03;21.50;99.90
10441;DHT22;5268;49.346;9.522;2023-08-30T11:14:07;21.50;99.90
10441;DHT22;5268;49.346;9.522;2023-08-30T11:19:10;21.10;99.90
10441;DHT22;5268;49.346;9.522;2023-08-30T11:24:13;21.10;99.90
10441;DHT22;5268;49.346;9.522;2023-08-30T11:29:17;21.10;99.90
10441;DHT22;5268;49.346;9.522;2023-08-30T11:34:20;21.50;99.90
10441;DHT22;5268;49.346;9.522;2023-08-30T11:39:23;21.70;99.90
10441;DHT22;5268;49.346;9.522;2023-08-30T11:44:28;21.80;99.90
10441;DHT22;5268;49.346;9.522;2023-08-30T11:49:30;21.80;99.90
10441;DHT22;5268;49.346;9.522;2023-08-30T11:54:34;22.00;99.90
10441;DHT22;5268;49.346;9.522;2023-08-30T11:59:38;21.80;99.90
10441;DHT22;5268;49.346;9.522;2023-08-30T12:04:40;22.10;99.90
10441;DHT22;5268;49.346;9.522;2023-08-30T12:09:42;22.30;99.90
10441;DHT22;5268;49.346;9.522;2023-08-30T12:14:54;22.40;99.90
10441;DHT22;5268;49.346;9.522;2023-08-30T12:19:57;22.50;99.90
10441;DHT22;5268;49.346;9.522;2023-08-30T12:24:58;22.70;99.90
10441;DHT22;5268;49.346;9.522;2023-08-30T12:30:02;22.80;99.90
10441;DHT22;5268;49.346;9.522;2023-08-30T12:35:05;22.80;99.90
10441;DHT22;5268;49.346;9.522;2023-08-30T12:40:07;22.80;99.90
10441;DHT22;5268;49.346;9.522;2023-08-30T12:45:11;22.90;99.90
10441;DHT22;5268;49.346;9.522;2023-08-30T12:50:13;22.60;99.90
10441;DHT22;5268;49.346;9.522;2023-08-30T12:55:15;22.80;99.90
10441;DHT22;5268;49.346;9.522;2023-08-30T13:00:19;22.80;99.90
10441;DHT22;5268;49.346;9.522;2023-08-30T13:05:21;22.90;99.90
10441;DHT22;5268;49.346;9.522;2023-08-30T13:10:23;22.90;99.90
10441;DHT22;5268;49.346;9.522;2023-08-30T13:15:27;22.90;99.90
10441;DHT22;5268;49.346;9.522;2023-08-30T13:20:29;22.90;99.90
10441;DHT22;5268;49.346;9.522;2023-08-30T13:25:30;23.00;99.90
10441;DHT22;5268;49.346;9.522;2023-08-30T13:30:34;22.90;99.90
10441;DHT22;5268;49.346;9.522;2023-08-30T13:35:36;22.90;99.90
10441;DHT22;5268;49.346;9.522;2023-08-30T13:40:40;22.50;99.90
10441;DHT22;5268;49.346;9.522;2023-08-30T13:45:43;22.70;99.90
10441;DHT22;5268;49.346;9.522;2023-08-30T13:50:47;22.80;99.90
10441;DHT22;5268;49.346;9.522;2023-08-30T13:55:49;22.90;99.90
10441;DHT22;5268;49.346;9.522;2023-08-30T14:00:52;23.00;99.90
10441;DHT22;5268;49.346;9.522;2023-08-30T14:05:54;22.90;99.90
10441;DHT22;5268;49.346;9.522;2023-08-30T14:10:56;22.70;99.90
10441;DHT22;5268;49.346;9.522;2023-08-30T14:16:00;22.50;99.90
10441;DHT22;5268;49.346;9.522;2023-08-30T14:21:03;22.50;99.90
10441;DHT22;5268;49.346;9.522;2023-08-30T14:26:06;22.40;99.90
10441;DHT22;5268;49.346;9.522;2023-08-30T14:31:12;22.50;99.90
10441;DHT22;5268;49.346;9.522;2023-08-30T14:36:14;22.70;99.90
10441;DHT22;5268;49.346;9.522;2023-08-30T14:41:16;22.70;99.90
10441;DHT22;5268;49.346;9.522;2023-08-30T14:46:20;22.80;99.90
10441;DHT22;5268;49.346;9.522;2023-08-30T14:51:22;22.80;99.90
10441;DHT22;5268;49.346;9.522;2023-08-30T14:56:23;22.60;99.90
10441;DHT22;5268;49.346;9.522;2023-08-30T15:01:27;22.40;99.90
10441;DHT22;5268;49.346;9.522;2023-08-30T15:06:29;22.30;99.90
10441;DHT22;5268;49.346;9.522;2023-08-30T15:11:31;22.20;99.90
10441;DHT22;5268;49.346;9.522;2023-08-30T15:16:34;21.90;99.90
10441;DHT22;5268;49.346;9.522;2023-08-30T15:21:36;22.00;99.90
10441;DHT22;5268;49.346;9.522;2023-08-30T15:26:39;22.00;99.90
10441;DHT22;5268;49.346;9.522;2023-08-30T15:31:42;21.80;99.90
10441;DHT22;5268;49.346;9.522;2023-08-30T15:36:46;21.80;99.90
10441;DHT22;5268;49.346;9.522;2023-08-30T15:41:48;21.90;99.90
10441;DHT22;5268;49.346;9.522;2023-08-30T15:46:51;21.80;99.90
10441;DHT22;5268;49.346;9.522;2023-08-30T15:51:53;21.70;99.90
10441;DHT22;5268;49.346;9.522;2023-08-30T15:56:56;21.60;99.90
10441;DHT22;5268;49.346;9.522;2023-08-30T16:01:59;21.50;99.90
10441;DHT22;5268;49.346;9.522;2023-08-30T16:07:01;21.60;99.90
10441;DHT22;5268;49.346;9.522;2023-08-30T16:12:03;21.50;99.90
10441;DHT22;5268;49.346;9.522;2023-08-30T16:17:07;21.50;99.90
10441;DHT22;5268;49.346;9.522;2023-08-30T16:22:09;21.50;99.90
10441;DHT22;5268;49.346;9.522;2023-08-30T16:27:12;21.40;99.90
10441;DHT22;5268;49.346;9.522;2023-08-30T16:32:15;21.30;99.90
10441;DHT22;5268;49.346;9.522;2023-08-30T16:37:17;21.30;99.90
10441;DHT22;5268;49.346;9.522;2023-08-30T16:42:20;21.40;99.90
10441;DHT22;5268;49.346;9.522;2023-08-30T16:47:24;21.30;99.90
10441;DHT22;5268;49.346;9.522;2023-08-30T16:52:26;21.20;99.90
10441;DHT22;5268;49.346;9.522;2023-08-30T16:57:28;21.10;99.90
10441;DHT22;5268;49.346;9.522;2023-08-30T17:02:31;21.10;99.90
10441;DHT22;5268;49.346;9.522;2023-08-30T17:07:35;21.10;99.90
10441;DHT22;5268;49.346;9.522;2023-08-30T17:12:37;21.00;99.90
10441;DHT22;5268;49.346;9.522;2023-08-30T17:17:40;21.00;99.90
10441;DHT22;5268;49.346;9.522;2023-08-30T17:22:42;20.80;99.90
10441;DHT22;5268;49.346;9.522;2023-08-30T17:27:44;20.60;99.90
10441;DHT22;5268;49.346;9.522;2023-08-30T17:32:48;20.50;99.90
10441;DHT22;5268;49.346;9.522;2023-08-30T17:37:50;20.50;99.90
10441;DHT22;5268;49.346;9.522;2023-08-30T17:42:52;20.40;99.90
10441;DHT22;5268;49.346;9.522;2023-08-30T17:47:55;20.40;99.90
10441;DHT22;5268;49.346;9.522;2023-08-30T17:52:57;20.30;99.90
10441;DHT22;5268;49.346;9.522;2023-08-30T17:57:59;20.20;99.90
10441;DHT22;5268;49.346;9.522;2023-08-30T18:03:03;20.10;99.90
10441;DHT22;5268;49.346;9.522;2023-08-30T18:08:05;20.00;99.90
10441;DHT22;5268;49.346;9.522;2023-08-30T18:13:07;19.90;99.90
10441;DHT22;5268;49.346;9.522;2023-08-30T18:18:11;19.80;99.90
10441;DHT22;5268;49.346;9.522;2023-08-30T18:23:13;19.70;99.90
10441;DHT22;5268;49.346;9.522;2023-08-30T18:28:15;19.60;99.90
10441;DHT22;5268;49.346;9.522;2023-08-30T18:33:18;19.50;99.90
10441;DHT22;5268;49.346;9.522;2023-08-30T18:38:20;19.40;99.90
10441;DHT22;5268;49.346;9.522;2023-08-30T18:43:22;19.30;99.90
10441;DHT22;5268;49.346;9.522;2023-08-30T18:48:26;19.20;99.90
10441;DHT22;5268;49.346;9.522;2023-08-30T18:53:28;19.10;99.90
10441;DHT22;5268;49.346;9.522;2023-08-30T18:58:31;19.00;99.90
10441;DHT22;5268;49.346;9.522;2023-08-30T19:03:34;19.00;99.90
10441;DHT22;5268;49.346;9.522;2023-08-30T19:08:36;18.90;99.90
10441;DHT22;5268;49.346;9.522;2023-08-30T19:13:39;18.90;99.90
10441;DHT22;5268;49.346;9.522;2023-08-30T19:18:42;18.80;99.90
10441;DHT22;5268;49.346;9.522;2023-08-30T19:23:44;18.70;99.90
10441;DHT22;5268;49.346;9.522;2023-08-30T19:28:47;18.70;99.90
10441;DHT22;5268;49.346;9.522;2023-08-30T19:33:50;18.70;99.90
10441;DHT22;5268;49.346;9.522;2023-08-30T19:38:53;18.70;99.90
10441;DHT22;5268;49.346;9.522;2023-08-30T19:43:55;18.60;99.90
10441;DHT22;5268;49.346;9.522;2023-08-30T19:48:59;18.60;99.90
10441;DHT22;5268;49.346;9.522;2023-08-30T19:54:01;18.50;99.90
10441;DHT22;5268;49.346;9.522;2023-08-30T19:59:04;18.50;99.90
10441;DHT22;5268;49.346;9.522;2023-08-30T20:04:07;18.40;99.90
10441;DHT22;5268;49.346;9.522;2023-08-30T20:09:09;18.30;99.90
10441;DHT22;5268;49.346;9.522;2023-08-30T20:14:11;18.20;99.90
10441;DHT22;5268;49.346;9.522;2023-08-30T20:19:18;18.00;99.90
10441;DHT22;5268;49.346;9.522;2023-08-30T20:24:19;17.80;99.90
10441;DHT22;5268;49.346;9.522;2023-08-30T20:29:21;17.70;99.90
10441;DHT22;5268;49.346;9.522;2023-08-30T20:34:25;17.60;99.90
10441;DHT22;5268;49.346;9.522;2023-08-30T20:39:29;17.50;99.90
10441;DHT22;5268;49.346;9.522;2023-08-30T20:44:30;17.40;99.90
10441;DHT22;5268;49.346;9.522;2023-08-30T20:49:34;17.30;99.90
10441;DHT22;5268;49.346;9.522;2023-08-30T20:54:37;17.20;99.90
10441;DHT22;5268;49.346;9.522;2023-08-30T20:59:39;17.10;99.90
10441;DHT22;5268;49.346;9.522;2023-08-30T21:04:43;17.10;99.90
10441;DHT22;5268;49.346;9.522;2023-08-30T21:09:45;17.10;99.90
10441;DHT22;5268;49.346;9.522;2023-08-30T21:14:47;17.10;99.90
10441;DHT22;5268;49.346;9.522;2023-08-30T21:19:50;17.10;99.90
10441;DHT22;5268;49.346;9.522;2023-08-30T21:24:52;17.10;99.90
10441;DHT22;5268;49.346;9.522;2023-08-30T21:29:55;17.10;99.90
10441;DHT22;5268;49.346;9.522;2023-08-30T21:34:58;17.10;99.90
10441;DHT22;5268;49.346;9.522;2023-08-30T21:40:00;17.00;99.90
10441;DHT22;5268;49.346;9.522;2023-08-30T21:45:04;17.00;99.90
10441;DHT22;5268;49.346;9.522;2023-08-30T21:50:08;16.90;99.90
